Time;durP1;ratioP1;P1;durP2;ratioP2;P2;SDS_P1;SDS_P2;PMS_P1;PMS_P2;Temp;Humidity;BMP_temperature;BMP_pressure;BME280_temperature;BME280_humidity;BME280_pressure;Samples;Min_cycle;Max_cycle;Signal;HPM_P1;HPM_P2
2023/01/19 00:00:58;;;;;;;19.48;5.68;;;;;;;;;;5013812;28;20014;-75
2023/01/19 00:03:44;;;;;;;20.95;5.93;;;;;;;;;;5004017;28;20030;-74
2023/01/19 00:06:30;;;;;;;25.23;5.25;;;;;;;;;;5005684;28;20558;-74
2023/01/19 00:09:16;;;;;;;19.55;5.10;;;;;;;;;;5004786;28;20080;-73
2023/01/19 00:12:01;;;;;;;24.42;5.70;;;;;;;;;;5017298;28;20032;-73
2023/01/19 00:14:47;;;;;;;23.77;5.25;;;;;;;;;;5004947;28;20100;-73
2023/01/19 00:17:33;;;;;;;31.63;5.97;;;;;;;;;;5003852;28;20451;-74
2023/01/19 00:20:18;;;;;;;19.58;6.05;;;;;;;;;;5017401;28;20033;-73
2023/01/19 00:23:06;;;;;;;27.52;5.65;;;;;;;;;;5017746;28;20100;-73
2023/01/19 00:25:51;;;;;;;26.65;5.35;;;;;;;;;;5017824;28;20434;-74
2023/01/19 00:28:37;;;;;;;28.30;6.15;;;;;;;;;;5017902;28;20033;-74
2023/01/19 00:31:23;;;;;;;27.00;6.18;;;;;;;;;;5017416;28;20021;-74
2023/01/19 00:34:08;;;;;;;24.15;5.65;;;;;;;;;;5016566;28;20026;-74
2023/01/19 00:36:54;;;;;;;19.27;5.15;;;;;;;;;;5017199;28;20018;-73
2023/01/19 00:39:39;;;;;;;25.70;5.18;;;;;;;;;;5017823;28;20029;-74
2023/01/19 00:42:40;;;;;;;23.65;5.95;;;;;;;;;;5003413;28;20017;-74
2023/01/19 00:45:26;;;;;;;26.35;6.00;;;;;;;;;;5018603;28;20029;-73
2023/01/19 00:48:11;;;;;;;26.60;5.85;;;;;;;;;;5003216;28;20116;-74
2023/01/19 00:50:58;;;;;;;24.98;5.55;;;;;;;;;;5004285;28;20068;-74
2023/01/19 00:53:44;;;;;;;25.40;5.53;;;;;;;;;;5017540;28;20398;-73
2023/01/19 00:56:33;;;;;;;23.88;5.85;;;;;;;;;;5017181;28;20065;-73
2023/01/19 01:02:22;;;;;;;26.13;5.50;;;;;;;;;;5016971;28;20359;-74
2023/01/19 01:05:09;;;;;;;27.08;6.10;;;;;;;;;;5016868;28;20057;-74
2023/01/19 01:07:55;;;;;;;25.08;6.03;;;;;;;;;;5003107;28;20026;-73
2023/01/19 01:10:40;;;;;;;27.25;5.43;;;;;;;;;;5016901;28;20018;-73
2023/01/19 01:13:26;;;;;;;24.02;5.53;;;;;;;;;;5015732;28;20089;-74
2023/01/19 01:16:13;;;;;;;23.60;5.68;;;;;;;;;;5016276;28;20110;-74
2023/01/19 01:18:59;;;;;;;24.65;5.97;;;;;;;;;;5016871;28;20022;-73
2023/01/19 01:21:44;;;;;;;31.90;5.82;;;;;;;;;;5016651;28;20064;-74
2023/01/19 01:24:30;;;;;;;29.33;5.72;;;;;;;;;;5003054;28;20020;-72
2023/01/19 01:27:16;;;;;;;26.25;6.35;;;;;;;;;;5016294;28;20033;-73
2023/01/19 01:30:02;;;;;;;25.08;6.25;;;;;;;;;;5003637;28;20102;-74
2023/01/19 01:32:47;;;;;;;34.55;5.90;;;;;;;;;;5016308;28;20029;-74
2023/01/19 01:35:33;;;;;;;24.40;5.18;;;;;;;;;;5016781;28;20447;-75
2023/01/19 01:38:19;;;;;;;22.33;4.78;;;;;;;;;;5016580;28;20018;-73
2023/01/19 01:41:04;;;;;;;21.45;5.32;;;;;;;;;;5016030;28;20021;-75
2023/01/19 01:43:57;;;;;;;24.70;5.70;;;;;;;;;;5017807;28;20054;-74
2023/01/19 01:46:42;;;;;;;23.30;5.10;;;;;;;;;;5003673;28;20513;-74
2023/01/19 01:49:28;;;;;;;26.33;4.93;;;;;;;;;;5016101;28;20029;-74
2023/01/19 01:52:15;;;;;;;25.77;5.28;;;;;;;;;;5015783;28;20358;-75
2023/01/19 01:55:01;;;;;;;21.25;5.50;;;;;;;;;;5016574;28;20113;-74
2023/01/19 01:57:50;;;;;;;24.08;5.43;;;;;;;;;;5015888;28;20467;-74
2023/01/19 02:03:41;;;;;;;29.38;5.53;;;;;;;;;;5016459;28;20022;-74
2023/01/19 02:06:27;;;;;;;33.55;5.72;;;;;;;;;;5015908;28;20029;-75
2023/01/19 02:15:21;;;;;;;22.55;5.35;;;;;;;;;;5025626;28;20018;-74
2023/01/19 02:18:06;;;;;;;22.50;5.20;;;;;;;;;;5023149;28;20355;-74
2023/01/19 02:20:55;;;;;;;26.92;5.47;;;;;;;;;;5015624;28;20327;-73
2023/01/19 02:23:45;;;;;;;29.20;5.75;;;;;;;;;;5027339;28;20030;-74
2023/01/19 02:26:34;;;;;;;20.73;5.35;;;;;;;;;;5014763;28;20109;-74
2023/01/19 02:29:21;;;;;;;22.50;4.90;;;;;;;;;;5016147;28;20013;-75
2023/01/19 02:32:07;;;;;;;21.25;5.25;;;;;;;;;;5016997;28;20018;-74
2023/01/19 02:34:53;;;;;;;23.55;5.57;;;;;;;;;;5015935;28;20018;-74
2023/01/19 02:37:39;;;;;;;24.67;5.70;;;;;;;;;;5015972;28;20045;-74
2023/01/19 02:40:25;;;;;;;24.80;5.10;;;;;;;;;;5016364;28;20018;-74
2023/01/19 02:43:11;;;;;;;21.23;5.07;;;;;;;;;;5015936;28;20022;-75
2023/01/19 02:45:57;;;;;;;25.15;5.18;;;;;;;;;;5002599;28;20049;-75
2023/01/19 02:48:42;;;;;;;26.67;5.03;;;;;;;;;;5015341;28;20021;-74
2023/01/19 02:51:28;;;;;;;24.05;5.25;;;;;;;;;;5027025;28;20033;-76
2023/01/19 02:54:23;;;;;;;35.15;5.63;;;;;;;;;;5009439;28;20026;-75
2023/01/19 02:57:27;;;;;;;22.35;5.00;;;;;;;;;;5014572;28;20044;-74
2023/01/19 03:00:15;;;;;;;18.63;4.70;;;;;;;;;;5001171;28;20033;-76
2023/01/19 03:03:01;;;;;;;26.15;5.55;;;;;;;;;;5014251;28;20018;-74
2023/01/19 03:05:46;;;;;;;22.98;5.80;;;;;;;;;;5014634;28;20087;-74
2023/01/19 03:09:01;;;;;;;25.98;5.65;;;;;;;;;;5014244;28;20056;-75
2023/01/19 03:11:50;;;;;;;23.38;4.95;;;;;;;;;;5010175;28;20032;-75
2023/01/19 03:14:40;;;;;;;23.58;5.35;;;;;;;;;;5015326;28;20026;-74
2023/01/19 03:17:28;;;;;;;25.25;5.47;;;;;;;;;;5014902;28;20465;-74
2023/01/19 03:20:15;;;;;;;28.23;5.85;;;;;;;;;;5015028;28;20085;-74
2023/01/19 03:23:03;;;;;;;28.73;5.35;;;;;;;;;;5001716;28;20025;-75
2023/01/19 03:25:50;;;;;;;23.25;5.45;;;;;;;;;;5001735;28;20045;-74
2023/01/19 03:28:37;;;;;;;24.10;5.30;;;;;;;;;;5014582;28;20030;-74
2023/01/19 03:31:24;;;;;;;29.25;5.13;;;;;;;;;;5015019;28;20018;-74
2023/01/19 03:34:12;;;;;;;21.42;5.32;;;;;;;;;;5014737;28;20109;-75
2023/01/19 03:36:59;;;;;;;24.27;5.40;;;;;;;;;;5015869;28;20469;-74
2023/01/19 03:39:45;;;;;;;22.30;5.28;;;;;;;;;;5018724;28;20111;-75
2023/01/19 03:42:31;;;;;;;25.65;5.85;;;;;;;;;;5017935;28;20042;-75
2023/01/19 03:45:17;;;;;;;20.63;4.95;;;;;;;;;;5018592;28;20025;-74
2023/01/19 03:48:03;;;;;;;29.65;5.60;;;;;;;;;;5018853;28;20116;-74
2023/01/19 03:50:50;;;;;;;26.88;5.65;;;;;;;;;;5018680;28;20022;-74
2023/01/19 03:53:35;;;;;;;26.52;5.65;;;;;;;;;;5018632;28;20120;-74
2023/01/19 03:56:22;;;;;;;32.60;5.03;;;;;;;;;;5018423;28;20014;-73
2023/01/19 03:59:08;;;;;;;31.50;5.88;;;;;;;;;;4979193;28;20440;-74
2023/01/19 04:01:53;;;;;;;26.27;5.20;;;;;;;;;;4979224;28;20102;-74
2023/01/19 04:04:39;;;;;;;27.95;5.28;;;;;;;;;;4978400;28;20475;-74
2023/01/19 04:07:25;;;;;;;25.45;5.05;;;;;;;;;;4977912;28;20087;-74
2023/01/19 04:10:11;;;;;;;23.80;4.72;;;;;;;;;;4979366;28;20396;-73
2023/01/19 04:12:57;;;;;;;23.08;5.15;;;;;;;;;;4979808;28;20019;-75
2023/01/19 04:15:43;;;;;;;22.60;5.10;;;;;;;;;;4978740;28;20471;-75
2023/01/19 04:18:29;;;;;;;27.88;5.82;;;;;;;;;;4979289;28;20049;-74
2023/01/19 04:21:15;;;;;;;29.17;5.53;;;;;;;;;;4977916;28;20019;-74
2023/01/19 04:24:01;;;;;;;27.67;5.75;;;;;;;;;;4978822;28;20023;-76
2023/01/19 04:26:46;;;;;;;24.95;5.20;;;;;;;;;;4979017;28;20026;-74
2023/01/19 04:29:32;;;;;;;27.30;5.20;;;;;;;;;;4979633;28;20348;-74
2023/01/19 04:32:17;;;;;;;22.60;5.70;;;;;;;;;;4978409;28;20031;-75
2023/01/19 04:35:03;;;;;;;29.60;5.55;;;;;;;;;;4979723;28;20019;-74
2023/01/19 04:37:49;;;;;;;28.27;5.10;;;;;;;;;;4978691;28;20452;-75
2023/01/19 04:40:34;;;;;;;26.17;5.63;;;;;;;;;;4979044;28;20034;-75
2023/01/19 04:43:20;;;;;;;31.25;5.47;;;;;;;;;;4978828;28;20022;-74
2023/01/19 04:46:06;;;;;;;27.08;4.90;;;;;;;;;;4978152;28;20034;-74
2023/01/19 04:48:52;;;;;;;24.05;5.75;;;;;;;;;;4977169;28;20031;-73
2023/01/19 04:51:37;;;;;;;27.38;6.10;;;;;;;;;;4978234;28;20367;-72
2023/01/19 04:54:23;;;;;;;23.08;5.65;;;;;;;;;;4978894;28;20022;-73
2023/01/19 04:57:09;;;;;;;28.45;5.90;;;;;;;;;;4988729;28;20135;-74
2023/01/19 04:59:55;;;;;;;23.15;5.43;;;;;;;;;;5016651;28;20025;-74
2023/01/19 05:02:42;;;;;;;32.15;5.68;;;;;;;;;;5003961;28;20025;-73
2023/01/19 05:05:28;;;;;;;22.25;5.55;;;;;;;;;;5017741;28;20030;-75
2023/01/19 05:08:14;;;;;;;26.77;5.68;;;;;;;;;;5015858;28;20032;-74
2023/01/19 05:10:59;;;;;;;28.42;5.45;;;;;;;;;;5016136;28;20030;-74
2023/01/19 05:13:45;;;;;;;34.38;8.82;;;;;;;;;;5016483;28;20033;-74
2023/01/19 05:16:30;;;;;;;25.83;5.57;;;;;;;;;;5003697;28;20025;-74
2023/01/19 05:19:16;;;;;;;22.73;5.13;;;;;;;;;;5017148;28;20022;-73
2023/01/19 05:22:02;;;;;;;23.80;5.75;;;;;;;;;;5002873;28;20014;-74
2023/01/19 05:24:48;;;;;;;29.38;5.72;;;;;;;;;;5016994;28;20454;-74
2023/01/19 05:27:33;;;;;;;26.70;5.55;;;;;;;;;;5003054;28;20130;-73
2023/01/19 05:30:19;;;;;;;24.38;5.72;;;;;;;;;;5016789;28;20014;-74
2023/01/19 05:33:05;;;;;;;28.00;5.53;;;;;;;;;;5016240;28;20029;-74
2023/01/19 05:35:51;;;;;;;28.75;6.70;;;;;;;;;;5016624;28;20033;-75
2023/01/19 05:38:36;;;;;;;31.38;5.80;;;;;;;;;;5016411;28;20022;-75
2023/01/19 05:41:22;;;;;;;27.38;6.05;;;;;;;;;;5002455;28;20018;-74
2023/01/19 05:44:08;;;;;;;32.70;5.88;;;;;;;;;;5015465;28;20018;-73
2023/01/19 05:46:53;;;;;;;27.77;5.70;;;;;;;;;;5016896;28;20036;-75
2023/01/19 05:49:39;;;;;;;30.73;6.20;;;;;;;;;;5016306;28;20052;-74
2023/01/19 05:52:25;;;;;;;30.45;6.28;;;;;;;;;;5015882;28;20350;-74
2023/01/19 05:55:10;;;;;;;28.67;5.82;;;;;;;;;;5015673;28;20060;-74
2023/01/19 05:57:56;;;;;;;31.33;6.32;;;;;;;;;;5015718;28;20057;-73
2023/01/19 06:00:41;;;;;;;23.10;6.13;;;;;;;;;;5002678;28;20018;-74
2023/01/19 06:03:27;;;;;;;33.10;6.80;;;;;;;;;;5003053;28;20034;-73
2023/01/19 06:06:14;;;;;;;37.35;6.30;;;;;;;;;;5015489;28;20037;-74
2023/01/19 06:08:59;;;;;;;27.55;6.30;;;;;;;;;;5015062;28;20026;-75
2023/01/19 06:11:46;;;;;;;29.92;6.45;;;;;;;;;;5002478;28;20034;-75
2023/01/19 06:14:31;;;;;;;34.90;6.65;;;;;;;;;;5015868;28;20026;-72
2023/01/19 06:17:17;;;;;;;38.60;6.55;;;;;;;;;;5001561;28;20140;-74
2023/01/19 06:20:04;;;;;;;36.25;6.95;;;;;;;;;;5002533;28;20017;-74
2023/01/19 06:22:49;;;;;;;33.17;5.97;;;;;;;;;;5015689;28;20084;-75
2023/01/19 06:32:24;;;;;;;29.20;6.55;;;;;;;;;;5015695;28;20025;-75
2023/01/19 06:35:09;;;;;;;34.25;6.90;;;;;;;;;;5014854;28;20380;-75
2023/01/19 06:37:55;;;;;;;30.98;6.35;;;;;;;;;;5016027;28;20034;-75
2023/01/19 06:40:41;;;;;;;31.42;6.68;;;;;;;;;;5002408;28;20116;-74
2023/01/19 06:43:27;;;;;;;38.03;6.63;;;;;;;;;;5014761;28;20033;-74
2023/01/19 06:46:12;;;;;;;33.25;7.40;;;;;;;;;;5015801;28;20026;-73
2023/01/19 06:48:58;;;;;;;35.50;6.70;;;;;;;;;;5001177;28;20351;-74
2023/01/19 06:54:19;;;;;;;31.58;7.22;;;;;;;;;;6113385;22;20217;-74
2023/01/19 06:57:04;;;;;;;33.10;6.57;;;;;;;;;;4981244;28;20096;-75
2023/01/19 06:59:50;;;;;;;36.50;6.70;;;;;;;;;;4996682;28;20034;-75
2023/01/19 07:02:36;;;;;;;29.90;6.50;;;;;;;;;;4995041;28;20028;-74
2023/01/19 07:05:23;;;;;;;35.45;7.15;;;;;;;;;;4994684;28;20029;-74
2023/01/19 07:08:09;;;;;;;32.72;6.75;;;;;;;;;;4994580;28;20022;-74
2023/01/19 07:11:02;;;;;;;31.52;5.90;;;;;;;;;;4994423;28;20412;-74
2023/01/19 07:13:50;;;;;;;29.25;6.53;;;;;;;;;;4995015;28;20113;-74
2023/01/19 07:16:36;;;;;;;34.42;6.32;;;;;;;;;;4994445;28;20026;-74
2023/01/19 07:19:21;;;;;;;31.50;7.03;;;;;;;;;;4995250;28;20030;-76
2023/01/19 07:22:07;;;;;;;33.40;6.20;;;;;;;;;;4994941;28;20168;-76
2023/01/19 07:24:52;;;;;;;34.47;6.22;;;;;;;;;;4995594;28;20022;-75
2023/01/19 07:27:39;;;;;;;40.83;7.38;;;;;;;;;;4995705;28;20391;-75
2023/01/19 07:30:25;;;;;;;39.85;7.30;;;;;;;;;;4995141;28;20105;-76
2023/01/19 07:33:11;;;;;;;28.40;6.45;;;;;;;;;;4994993;28;20023;-78
2023/01/19 07:35:56;;;;;;;30.63;6.50;;;;;;;;;;4980958;28;20112;-77
2023/01/19 07:38:42;;;;;;;36.95;7.15;;;;;;;;;;4994972;28;20054;-75
2023/01/19 07:41:27;;;;;;;37.67;7.22;;;;;;;;;;4981402;28;20022;-75
2023/01/19 07:44:13;;;;;;;34.60;7.10;;;;;;;;;;4995881;28;20022;-75
2023/01/19 07:46:59;;;;;;;28.90;6.55;;;;;;;;;;4994616;28;20444;-75
2023/01/19 07:49:44;;;;;;;42.47;7.25;;;;;;;;;;4981136;28;20026;-75
2023/01/19 07:52:30;;;;;;;37.08;6.65;;;;;;;;;;4994257;28;20031;-75
2023/01/19 07:55:15;;;;;;;28.65;6.82;;;;;;;;;;4994383;28;20048;-76
2023/01/19 07:58:05;;;;;;;39.17;6.97;;;;;;;;;;4994630;28;20088;-75
2023/01/19 08:00:51;;;;;;;30.50;5.88;;;;;;;;;;4994285;28;20022;-76
2023/01/19 08:03:37;;;;;;;33.13;7.10;;;;;;;;;;4994450;28;20359;-75
2023/01/19 08:06:25;;;;;;;31.55;5.97;;;;;;;;;;4980502;28;20022;-75
2023/01/19 08:09:10;;;;;;;65.20;24.52;;;;;;;;;;4994851;28;20049;-74
2023/01/19 08:11:56;;;;;;;32.88;5.93;;;;;;;;;;4993982;28;20022;-75
2023/01/19 08:14:42;;;;;;;22.70;5.68;;;;;;;;;;4980819;28;20166;-74
2023/01/19 08:17:27;;;;;;;35.13;6.97;;;;;;;;;;4995424;28;20026;-74
2023/01/19 08:20:13;;;;;;;26.50;5.43;;;;;;;;;;4989095;28;20030;-75
2023/01/19 08:22:59;;;;;;;29.02;6.07;;;;;;;;;;4994097;28;20026;-75
2023/01/19 08:25:45;;;;;;;42.05;5.68;;;;;;;;;;5004512;28;20077;-74
2023/01/19 08:28:31;;;;;;;39.63;6.30;;;;;;;;;;4998027;28;20045;-75
2023/01/19 08:31:16;;;;;;;27.42;5.47;;;;;;;;;;4997171;28;20410;-75
2023/01/19 08:34:02;;;;;;;41.67;6.50;;;;;;;;;;4998609;28;20026;-74
2023/01/19 08:36:48;;;;;;;27.40;6.00;;;;;;;;;;4997084;28;20105;-75
2023/01/19 08:39:33;;;;;;;33.25;6.53;;;;;;;;;;4997103;28;20057;-74
2023/01/19 08:42:22;;;;;;;37.25;5.97;;;;;;;;;;4997723;28;20019;-74
2023/01/19 08:45:08;;;;;;;35.55;5.70;;;;;;;;;;4997936;28;20057;-75
2023/01/19 08:47:54;;;;;;;31.60;5.53;;;;;;;;;;4997315;28;20033;-76
2023/01/19 08:50:40;;;;;;;29.70;6.35;;;;;;;;;;4998105;28;20053;-75
2023/01/19 08:53:26;;;;;;;35.97;12.00;;;;;;;;;;4982570;28;20026;-75
2023/01/19 08:56:12;;;;;;;37.13;7.50;;;;;;;;;;4997557;28;20367;-74
2023/01/19 08:58:58;;;;;;;29.02;7.30;;;;;;;;;;4997579;28;20399;-75
2023/01/19 09:01:43;;;;;;;28.65;6.53;;;;;;;;;;4997710;28;20141;-74
2023/01/19 09:04:29;;;;;;;28.92;6.50;;;;;;;;;;4984124;28;20081;-75
2023/01/19 09:07:16;;;;;;;35.92;6.78;;;;;;;;;;4997174;28;20476;-75
2023/01/19 09:10:05;;;;;;;35.15;5.72;;;;;;;;;;4984486;28;20022;-75
2023/01/19 09:12:50;;;;;;;39.10;8.40;;;;;;;;;;4996536;28;20158;-75
2023/01/19 09:15:37;;;;;;;35.17;6.30;;;;;;;;;;4984260;28;20068;-74
2023/01/19 09:18:40;;;;;;;34.05;5.68;;;;;;;;;;4998511;28;20391;-75
2023/01/19 09:29:14;;;;;;;37.10;5.63;;;;;;;;;;6063369;23;20056;-75
2023/01/19 09:32:00;;;;;;;43.88;6.03;;;;;;;;;;4983396;28;20039;-75
2023/01/19 09:34:46;;;;;;;25.50;5.07;;;;;;;;;;4977391;28;20027;-75
2023/01/19 09:37:35;;;;;;;51.00;6.65;;;;;;;;;;4977935;28;20019;-76
2023/01/19 09:40:26;;;;;;;33.95;5.97;;;;;;;;;;4977860;28;20054;-76
2023/01/19 09:43:31;;;;;;;27.52;4.75;;;;;;;;;;4977269;28;20018;-76
2023/01/19 09:46:20;;;;;;;32.88;5.57;;;;;;;;;;4972754;28;20062;-76
2023/01/19 09:49:13;;;;;;;40.60;6.25;;;;;;;;;;4963773;28;20054;-76
2023/01/19 10:36:25;;;;;;;35.17;5.55;;;;;;;;;;5308650;23;20054;-76
2023/01/19 10:39:17;;;;;;;46.17;6.43;;;;;;;;;;4975422;28;20121;-76
2023/01/19 10:42:05;;;;;;;32.83;5.55;;;;;;;;;;4974999;28;20026;-76
2023/01/19 10:44:51;;;;;;;34.78;5.60;;;;;;;;;;4975399;28;20034;-76
2023/01/19 10:47:38;;;;;;;28.55;4.97;;;;;;;;;;4975046;28;20034;-76
2023/01/19 10:50:26;;;;;;;44.13;5.60;;;;;;;;;;4974864;28;20023;-76
2023/01/19 10:53:19;;;;;;;28.35;5.35;;;;;;;;;;4975960;28;20022;-76
2023/01/19 10:56:14;;;;;;;33.05;5.55;;;;;;;;;;4975182;28;20011;-76
2023/01/19 10:59:00;;;;;;;42.38;5.43;;;;;;;;;;4975266;28;20023;-76
2023/01/19 11:02:00;;;;;;;34.67;5.00;;;;;;;;;;4975568;28;20082;-76
2023/01/19 11:04:48;;;;;;;31.67;5.13;;;;;;;;;;4976039;28;20033;-75
2023/01/19 11:07:33;;;;;;;25.95;5.10;;;;;;;;;;4975050;28;20058;-76
2023/01/19 11:10:21;;;;;;;26.50;5.25;;;;;;;;;;4976191;28;20477;-76
2023/01/19 11:13:12;;;;;;;27.73;5.28;;;;;;;;;;4974842;28;20030;-76
2023/01/19 11:15:58;;;;;;;28.35;5.13;;;;;;;;;;4976834;28;20019;-76
2023/01/19 11:18:46;;;;;;;33.72;4.93;;;;;;;;;;4974924;28;20031;-76
2023/01/19 11:21:31;;;;;;;39.78;5.60;;;;;;;;;;4975036;28;20035;-76
2023/01/19 11:24:17;;;;;;;22.10;4.57;;;;;;;;;;4975025;28;20037;-75
2023/01/19 11:27:03;;;;;;;36.90;5.03;;;;;;;;;;4976617;28;20023;-76
2023/01/19 11:29:52;;;;;;;34.88;5.75;;;;;;;;;;4975195;28;20412;-76
2023/01/19 11:32:38;;;;;;;32.72;5.30;;;;;;;;;;4974548;28;20149;-76
2023/01/19 12:18:23;;;;;;;25.08;4.72;;;;;;;;;;5900645;23;20054;-76
2023/01/19 12:21:09;;;;;;;29.02;4.68;;;;;;;;;;4977662;28;20058;-76
2023/01/19 12:24:07;;;;;;;23.83;3.72;;;;;;;;;;4979314;28;20110;-75
2023/01/19 12:26:56;;;;;;;29.40;4.75;;;;;;;;;;4978250;28;20015;-75
2023/01/19 12:29:42;;;;;;;33.03;5.15;;;;;;;;;;4979442;28;20463;-76
2023/01/19 12:32:32;;;;;;;24.45;4.57;;;;;;;;;;4977395;28;20027;-75
2023/01/19 12:35:39;;;;;;;20.73;3.70;;;;;;;;;;4977112;28;20019;-75
2023/01/19 12:38:31;;;;;;;26.08;5.70;;;;;;;;;;4977323;28;20049;-75
2023/01/19 12:41:19;;;;;;;27.40;5.22;;;;;;;;;;4978464;28;20019;-75
2023/01/19 12:44:11;;;;;;;30.40;4.32;;;;;;;;;;4977690;28;20027;-74
2023/01/19 12:47:05;;;;;;;28.17;4.15;;;;;;;;;;4977468;28;20069;-75
2023/01/19 12:49:52;;;;;;;29.23;4.53;;;;;;;;;;4978629;28;20019;-74
2023/01/19 12:52:40;;;;;;;26.60;4.22;;;;;;;;;;4978578;28;20439;-75
2023/01/19 12:55:29;;;;;;;27.75;4.63;;;;;;;;;;4978700;28;20035;-74
2023/01/19 12:58:17;;;;;;;23.30;5.20;;;;;;;;;;4979740;28;20034;-76
2023/01/19 13:03:56;;;;;;;21.50;4.63;;;;;;;;;;5604680;23;20149;-74
2023/01/19 13:06:48;;;;;;;24.63;4.38;;;;;;;;;;4977156;28;20050;-77
2023/01/19 13:09:35;;;;;;;25.25;4.85;;;;;;;;;;4977274;28;20047;-74
2023/01/19 13:12:24;;;;;;;19.73;4.72;;;;;;;;;;4978768;28;20058;-75
2023/01/19 13:15:36;;;;;;;23.77;4.10;;;;;;;;;;4979361;28;20114;-75
2023/01/19 13:18:23;;;;;;;24.98;4.22;;;;;;;;;;4998762;28;20086;-76
2023/01/19 13:21:09;;;;;;;26.45;4.30;;;;;;;;;;4978510;28;20060;-74
2023/01/19 13:33:49;;;;;;;22.58;3.80;;;;;;;;;;5922147;23;21049;-75
2023/01/19 13:36:36;;;;;;;21.58;4.00;;;;;;;;;;4978401;28;20042;-75
2023/01/19 13:39:25;;;;;;;21.60;4.43;;;;;;;;;;4977247;28;20085;-74
2023/01/19 13:42:15;;;;;;;24.45;4.10;;;;;;;;;;4977175;28;20019;-74
2023/01/19 13:45:24;;;;;;;23.52;4.45;;;;;;;;;;4977208;28;20430;-74
2023/01/19 13:48:13;;;;;;;23.90;4.05;;;;;;;;;;4977064;28;20042;-75
2023/01/19 13:51:06;;;;;;;16.95;3.55;;;;;;;;;;4976448;28;20026;-75
2023/01/19 13:53:52;;;;;;;24.05;4.07;;;;;;;;;;4981058;28;20099;-74
2023/01/19 13:56:40;;;;;;;26.27;4.93;;;;;;;;;;4996211;28;20066;-75
2023/01/19 13:59:26;;;;;;;28.27;4.57;;;;;;;;;;4977584;28;20026;-75
2023/01/19 14:02:12;;;;;;;19.88;4.53;;;;;;;;;;4975221;28;20027;-74
2023/01/19 14:05:10;;;;;;;18.15;4.28;;;;;;;;;;4976160;28;20054;-75
2023/01/19 14:08:05;;;;;;;26.90;5.07;;;;;;;;;;4976698;28;20030;-75
2023/01/19 14:10:51;;;;;;;14.80;3.63;;;;;;;;;;4978770;28;20045;-74
2023/01/19 14:13:40;;;;;;;25.17;4.20;;;;;;;;;;4980313;28;20015;-75
2023/01/19 14:16:25;;;;;;;21.30;3.75;;;;;;;;;;4976954;28;20026;-76
2023/01/19 14:19:11;;;;;;;20.95;3.92;;;;;;;;;;4977615;28;20023;-74
2023/01/19 14:22:01;;;;;;;22.63;3.95;;;;;;;;;;4975771;28;20353;-75
2023/01/19 14:24:47;;;;;;;21.52;4.32;;;;;;;;;;4976429;28;20109;-74
2023/01/19 14:27:32;;;;;;;24.40;3.83;;;;;;;;;;4976825;28;20363;-75
2023/01/19 14:30:21;;;;;;;23.45;4.18;;;;;;;;;;4975246;28;20135;-75
2023/01/19 14:33:26;;;;;;;19.88;4.15;;;;;;;;;;4976440;28;20105;-75
2023/01/19 14:36:17;;;;;;;19.65;4.13;;;;;;;;;;4976161;28;20070;-76
2023/01/19 14:42:42;;;;;;;16.27;3.70;;;;;;;;;;5151105;23;20074;-75
2023/01/19 14:45:33;;;;;;;16.20;4.50;;;;;;;;;;4976066;28;20093;-75
2023/01/19 14:48:21;;;;;;;25.88;3.80;;;;;;;;;;4976439;28;20019;-73
2023/01/19 14:51:06;;;;;;;21.58;3.55;;;;;;;;;;4975807;28;20105;-71
2023/01/19 14:53:53;;;;;;;15.45;3.28;;;;;;;;;;4976294;28;20380;-70
2023/01/19 14:56:39;;;;;;;21.25;4.07;;;;;;;;;;4976921;28;20439;-70
2023/01/19 14:59:24;;;;;;;15.15;3.85;;;;;;;;;;4976368;28;20023;-70
2023/01/19 15:02:10;;;;;;;25.80;11.20;;;;;;;;;;4975812;28;20014;-70
2023/01/19 15:04:56;;;;;;;19.98;3.53;;;;;;;;;;4975582;28;20011;-71
2023/01/19 15:07:43;;;;;;;15.48;3.60;;;;;;;;;;4975538;28;20102;-73
2023/01/19 15:10:28;;;;;;;13.13;3.53;;;;;;;;;;4976547;28;20036;-75
2023/01/19 15:13:17;;;;;;;14.90;3.80;;;;;;;;;;4975755;28;20022;-67
2023/01/19 15:16:02;;;;;;;13.23;3.65;;;;;;;;;;4976185;28;20027;-73
2023/01/19 15:18:48;;;;;;;13.73;4.22;;;;;;;;;;4976091;28;20027;-73
2023/01/19 15:21:34;;;;;;;16.58;3.30;;;;;;;;;;4975259;28;20023;-73
2023/01/19 15:24:19;;;;;;;21.85;3.72;;;;;;;;;;4975578;28;20399;-71
2023/01/19 15:27:10;;;;;;;15.27;4.45;;;;;;;;;;4976066;28;20026;-72
2023/01/19 15:29:58;;;;;;;17.20;3.83;;;;;;;;;;4975918;28;20035;-73
2023/01/19 15:32:45;;;;;;;12.45;3.10;;;;;;;;;;4976794;28;20023;-73
2023/01/19 15:35:30;;;;;;;15.52;3.40;;;;;;;;;;4979706;28;20588;-73
2023/01/19 15:38:16;;;;;;;11.20;3.20;;;;;;;;;;4979944;28;20026;-74
2023/01/19 15:41:01;;;;;;;14.10;3.40;;;;;;;;;;4979474;28;20030;-74
2023/01/19 15:43:47;;;;;;;13.95;3.58;;;;;;;;;;4979579;28;20462;-75
2023/01/19 15:46:33;;;;;;;15.93;3.30;;;;;;;;;;4979719;28;20367;-76
2023/01/19 15:49:19;;;;;;;12.48;3.53;;;;;;;;;;4979871;28;20102;-75
2023/01/19 15:52:04;;;;;;;16.08;5.43;;;;;;;;;;4979484;28;20019;-75
2023/01/19 15:54:50;;;;;;;17.27;5.53;;;;;;;;;;4979487;28;20387;-75
2023/01/19 15:57:35;;;;;;;17.40;4.43;;;;;;;;;;4979653;28;20096;-75
2023/01/19 16:00:21;;;;;;;12.90;3.90;;;;;;;;;;4979800;28;20057;-73
2023/01/19 16:03:07;;;;;;;16.30;4.47;;;;;;;;;;4978786;28;20474;-73
2023/01/19 16:05:52;;;;;;;14.85;3.30;;;;;;;;;;4979359;28;20083;-73
2023/01/19 16:08:38;;;;;;;16.20;3.20;;;;;;;;;;4978125;28;20037;-73
2023/01/19 16:11:24;;;;;;;14.30;3.53;;;;;;;;;;4977873;28;20058;-73
2023/01/19 16:14:09;;;;;;;11.07;3.00;;;;;;;;;;4977866;28;20041;-75
2023/01/19 16:16:58;;;;;;;8.93;3.03;;;;;;;;;;4979358;28;20025;-75
2023/01/19 16:19:44;;;;;;;14.57;3.60;;;;;;;;;;4978402;28;20019;-74
2023/01/19 16:22:29;;;;;;;12.18;3.42;;;;;;;;;;4979324;28;20026;-75
2023/01/19 16:25:15;;;;;;;9.68;2.78;;;;;;;;;;4979240;28;20034;-75
2023/01/19 16:28:01;;;;;;;13.48;3.35;;;;;;;;;;4978915;28;20077;-75
2023/01/19 16:30:46;;;;;;;11.63;3.53;;;;;;;;;;4978924;28;20119;-75
2023/01/19 16:33:35;;;;;;;10.30;3.33;;;;;;;;;;4977497;28;20023;-74
2023/01/19 16:36:22;;;;;;;10.80;2.95;;;;;;;;;;4978467;28;20038;-73
2023/01/19 16:39:10;;;;;;;10.10;2.80;;;;;;;;;;4978702;28;20340;-72
2023/01/19 16:41:55;;;;;;;11.55;3.50;;;;;;;;;;4977161;28;20047;-74
2023/01/19 16:44:41;;;;;;;9.43;2.60;;;;;;;;;;4983380;28;20030;-73
2023/01/19 16:47:26;;;;;;;14.82;3.67;;;;;;;;;;4978730;28;20448;-74
2023/01/19 16:50:12;;;;;;;9.30;3.28;;;;;;;;;;4978724;28;20038;-74
2023/01/19 16:52:58;;;;;;;13.15;3.25;;;;;;;;;;4978577;28;20022;-74
2023/01/19 16:55:43;;;;;;;13.18;3.38;;;;;;;;;;4977222;28;20086;-75
2023/01/19 16:58:29;;;;;;;13.90;3.30;;;;;;;;;;4977660;28;20134;-74
2023/01/19 17:01:18;;;;;;;13.25;3.55;;;;;;;;;;4978152;28;20019;-74
2023/01/19 17:04:03;;;;;;;11.80;3.83;;;;;;;;;;4977660;28;20085;-73
2023/01/19 17:06:49;;;;;;;10.48;2.80;;;;;;;;;;4978684;28;20034;-73
2023/01/19 17:09:35;;;;;;;12.13;3.58;;;;;;;;;;4977075;28;20022;-73
2023/01/19 17:12:20;;;;;;;11.68;3.63;;;;;;;;;;4978662;28;20110;-73
2023/01/19 17:15:06;;;;;;;16.80;3.92;;;;;;;;;;4976884;28;20031;-74
2023/01/19 17:17:52;;;;;;;11.05;2.92;;;;;;;;;;4977977;28;20027;-74
2023/01/19 17:20:37;;;;;;;13.48;3.78;;;;;;;;;;4977628;28;20379;-75
2023/01/19 17:23:23;;;;;;;10.68;3.17;;;;;;;;;;4978237;28;20097;-73
2023/01/19 17:26:09;;;;;;;9.93;2.90;;;;;;;;;;4977690;28;20069;-75
2023/01/19 17:28:58;;;;;;;13.65;4.03;;;;;;;;;;4977841;28;20026;-74
2023/01/19 17:31:45;;;;;;;12.27;3.55;;;;;;;;;;4976315;28;20189;-73
2023/01/19 17:34:31;;;;;;;10.27;3.35;;;;;;;;;;4977849;28;20027;-74
2023/01/19 17:37:16;;;;;;;9.27;3.20;;;;;;;;;;4977017;28;20100;-73
2023/01/19 17:40:02;;;;;;;11.95;2.95;;;;;;;;;;4976033;28;20054;-73
2023/01/19 17:42:48;;;;;;;14.07;3.35;;;;;;;;;;4977102;28;20047;-73
2023/01/19 17:45:35;;;;;;;12.07;3.20;;;;;;;;;;4976337;28;20027;-73
2023/01/19 17:48:20;;;;;;;15.02;3.20;;;;;;;;;;4977659;28;20033;-73
2023/01/19 17:51:10;;;;;;;12.80;3.20;;;;;;;;;;4975741;28;20023;-74
2023/01/19 17:53:56;;;;;;;12.07;3.15;;;;;;;;;;4977221;28;20022;-73
2023/01/19 17:56:41;;;;;;;10.63;2.80;;;;;;;;;;4977004;28;20035;-73
2023/01/19 17:59:27;;;;;;;10.73;3.10;;;;;;;;;;4977341;28;20015;-74
2023/01/19 18:02:12;;;;;;;13.38;3.55;;;;;;;;;;4976587;28;20085;-75
2023/01/19 18:05:01;;;;;;;12.85;3.67;;;;;;;;;;4978099;28;20115;-74
2023/01/19 19:35:44;;;;;;;9.98;2.92;;;;;;;;;;5607773;23;20054;-75
2023/01/19 19:38:30;;;;;;;12.80;2.90;;;;;;;;;;4996538;28;20045;-75
2023/01/19 19:41:17;;;;;;;11.82;3.13;;;;;;;;;;4981707;28;20489;-74
2023/01/19 19:44:03;;;;;;;10.30;3.22;;;;;;;;;;4995676;28;20411;-73
2023/01/19 19:46:49;;;;;;;10.43;3.03;;;;;;;;;;4995802;28;20030;-73
2023/01/19 19:49:34;;;;;;;13.93;3.25;;;;;;;;;;4994630;28;20113;-73
2023/01/19 19:52:20;;;;;;;10.85;3.00;;;;;;;;;;4995725;28;20029;-74
2023/01/19 19:55:07;;;;;;;13.55;2.90;;;;;;;;;;4995472;28;20176;-73
2023/01/19 19:57:53;;;;;;;14.85;3.20;;;;;;;;;;4982084;28;20054;-73
2023/01/19 20:00:39;;;;;;;8.05;2.45;;;;;;;;;;4994873;28;20041;-74
2023/01/19 20:03:25;;;;;;;14.32;3.42;;;;;;;;;;4995858;28;20407;-73
2023/01/19 20:06:13;;;;;;;11.85;3.13;;;;;;;;;;4995949;28;20347;-73
2023/01/19 20:08:58;;;;;;;12.82;3.17;;;;;;;;;;4994426;28;20057;-73